www.cux-wetter.de
Wetterdaten: Montag, 06.08.2012
Datum Zeit Temp. A. Feuchte A. Luftdruck Regen Wind Richtung Richtung Sonnenschein Solar Taupunkt Windchill Windben
06.08.2012 00:00 18,7 C 89 % 1006,5 hPa 0,0 l/m 0,9 km/h (0 Bft) SO 140 0 min 0 W/m 16,8 C 18,7 C 0,9 km/h (0 Bft)
06.08.2012 00:15 18,5 C 89 % 1006,5 hPa 0,0 l/m 0,3 km/h (0 Bft) O-SO 120 0 min 0 W/m 16,7 C 18,5 C 0,3 km/h (0 Bft)
06.08.2012 00:30 18,5 C 89 % 1006,5 hPa 0,0 l/m 0,3 km/h (0 Bft) O-SO 120 0 min 0 W/m 16,7 C 18,5 C 0,3 km/h (0 Bft)
06.08.2012 00:45 18,4 C 89 % 1006,5 hPa 0,0 l/m 0,3 km/h (0 Bft) O-SO 120 0 min 0 W/m 16,6 C 18,4 C 0,3 km/h (0 Bft)
06.08.2012 01:00 18,3 C 89 % 1006,5 hPa 0,0 l/m 0,3 km/h (0 Bft) O-SO 120 0 min 0 W/m 16,5 C 18,3 C 0,3 km/h (0 Bft)
06.08.2012 01:15 18,2 C 89 % 1005,5 hPa 0,0 l/m 0,3 km/h (0 Bft) O-SO 120 0 min 0 W/m 16,4 C 18,2 C 0,3 km/h (0 Bft)
06.08.2012 01:30 18,2 C 89 % 1005,5 hPa 0,0 l/m 4,9 km/h (1 Bft) S-SO 160 0 min 0 W/m 16,4 C 18,2 C 4,9 km/h (1 Bft)
06.08.2012 01:45 18,2 C 89 % 1006,5 hPa 0,0 l/m 4,9 km/h (1 Bft) S-SO 160 0 min 0 W/m 16,4 C 18,2 C 4,9 km/h (1 Bft)
06.08.2012 02:00 18,1 C 89 % 1006,5 hPa 0,0 l/m 4,9 km/h (1 Bft) S-SO 160 0 min 0 W/m 16,3 C 18,1 C 4,9 km/h (1 Bft)
06.08.2012 02:15 18,1 C 89 % 1006,5 hPa 0,0 l/m 4,9 km/h (1 Bft) S-SO 160 0 min 0 W/m 16,3 C 18,1 C 4,9 km/h (1 Bft)
06.08.2012 02:30 18,1 C 89 % 1006,5 hPa 0,0 l/m 4,9 km/h (1 Bft) S-SO 160 0 min 0 W/m 16,3 C 18,1 C 4,9 km/h (1 Bft)
06.08.2012 02:45 18,1 C 89 % 1005,5 hPa 0,0 l/m 4,9 km/h (1 Bft) S-SO 160 0 min 0 W/m 16,3 C 18,1 C 4,9 km/h (1 Bft)
06.08.2012 03:00 18,2 C 89 % 1005,5 hPa 0,0 l/m 4,9 km/h (1 Bft) S-SO 160 0 min 0 W/m 16,4 C 18,2 C 4,9 km/h (1 Bft)
06.08.2012 03:15 18,1 C 89 % 1005,5 hPa 0,0 l/m 4,9 km/h (1 Bft) S-SO 160 0 min 0 W/m 16,3 C 18,1 C 4,9 km/h (1 Bft)
06.08.2012 03:30 18,1 C 89 % 1005,5 hPa 0,0 l/m 4,9 km/h (1 Bft) S-SO 160 0 min 0 W/m 16,3 C 18,1 C 4,9 km/h (1 Bft)
06.08.2012 03:45 18,1 C 89 % 1005,5 hPa 0,0 l/m 4,9 km/h (1 Bft) S-SO 160 0 min 0 W/m 16,3 C 18,1 C 4,9 km/h (1 Bft)
06.08.2012 04:00 18,1 C 89 % 1005,5 hPa 0,0 l/m 4,9 km/h (1 Bft) S-SO 160 0 min 0 W/m 16,3 C 18,1 C 4,9 km/h (1 Bft)
06.08.2012 04:15 18,1 C 89 % 1005,5 hPa 0,0 l/m 4,9 km/h (1 Bft) S-SO 160 0 min 0 W/m 16,3 C 18,1 C 4,9 km/h (1 Bft)
06.08.2012 04:30 18,0 C 89 % 1005,5 hPa 0,6 l/m 4,9 km/h (1 Bft) S-SO 160 0 min 0 W/m 16,2 C 18,0 C 4,9 km/h (1 Bft)
06.08.2012 04:45 18,0 C 89 % 1005,5 hPa 2,1 l/m 4,9 km/h (1 Bft) S-SO 160 0 min 0 W/m 16,2 C 18,0 C 4,9 km/h (1 Bft)
06.08.2012 05:00 17,9 C 90 % 1004,5 hPa 0,3 l/m 15,3 km/h (3 Bft) NW 310 0 min 0 W/m 16,2 C 14,6 C 15,3 km/h (3 Bft)
06.08.2012 05:15 17,8 C 90 % 1004,5 hPa 0,9 l/m 22,3 km/h (4 Bft) W-NW 300 0 min 0 W/m 16,1 C 12,9 C 22,3 km/h (4 Bft)
06.08.2012 05:29 17,6 C 90 % 1004,5 hPa 0,3 l/m 13,9 km/h (3 Bft) NW 315 0 min 0 W/m 15,9 C 14,7 C 13,9 km/h (3 Bft)
06.08.2012 05:45 17,6 C 90 % 1005,5 hPa 0,3 l/m 18,3 km/h (3 Bft) NW 320 0 min 0 W/m 15,9 C 13,5 C 18,3 km/h (3 Bft)
06.08.2012 06:00 17,3 C 90 % 1005,5 hPa 2,4 l/m 14,6 km/h (3 Bft) N-NW 330 0 min 0 W/m 15,6 C 14,1 C 14,6 km/h (3 Bft)
06.08.2012 06:15 17,3 C 90 % 1005,5 hPa 1,2 l/m 9,6 km/h (2 Bft) NW 310 0 min 0 W/m 15,6 C 15,8 C 9,6 km/h (2 Bft)
06.08.2012 06:30 17,3 C 90 % 1004,5 hPa 0,9 l/m 7,3 km/h (2 Bft) NW 305 0 min 0 W/m 15,6 C 16,9 C 7,3 km/h (2 Bft)
06.08.2012 06:45 17,4 C 90 % 1004,5 hPa 0,0 l/m 9,8 km/h (2 Bft) W-NW 295 0 min 0 W/m 15,7 C 15,8 C 9,8 km/h (2 Bft)
06.08.2012 07:00 17,4 C 91 % 1004,5 hPa 0,6 l/m 14,0 km/h (3 Bft) W-NW 285 0 min 0 W/m 15,9 C 14,4 C 14,0 km/h (3 Bft)
06.08.2012 07:14 17,3 C 91 % 1004,5 hPa 0,0 l/m 7,2 km/h (2 Bft) W 275 0 min 0 W/m 15,8 C 16,9 C 7,2 km/h (2 Bft)
06.08.2012 07:30 17,4 C 90 % 1004,5 hPa 0,0 l/m 0,0 km/h (0 Bft) NW 310 0 min 0 W/m 15,7 C 17,4 C 0,0 km/h (0 Bft)
06.08.2012 07:45 17,4 C 90 % 1004,5 hPa 0,0 l/m 0,0 km/h (0 Bft) NW 315 0 min 0 W/m 15,7 C 17,4 C 0,0 km/h (0 Bft)
06.08.2012 08:00 17,6 C 91 % 1004,5 hPa 0,0 l/m 0,0 km/h (0 Bft) NW 315 0 min 0 W/m 16,1 C 17,6 C 0,0 km/h (0 Bft)
06.08.2012 08:15 17,6 C 91 % 1004,5 hPa 0,0 l/m 0,0 km/h (0 Bft) NW 315 0 min 0 W/m 16,1 C 17,6 C 0,0 km/h (0 Bft)
06.08.2012 08:30 17,7 C 91 % 1005,5 hPa 0,0 l/m 0,0 km/h (0 Bft) NW 315 0 min 0 W/m 16,2 C 17,7 C 0,0 km/h (0 Bft)
06.08.2012 08:45 17,8 C 91 % 1005,5 hPa 0,0 l/m 11,2 km/h (2 Bft) W-SW 255 0 min 0 W/m 16,3 C 15,8 C 11,2 km/h (2 Bft)
06.08.2012 09:00 17,8 C 91 % 1005,5 hPa 0,0 l/m 18,3 km/h (3 Bft) W-SW 250 0 min 0 W/m 16,3 C 13,7 C 18,3 km/h (3 Bft)
06.08.2012 09:15 17,8 C 91 % 1005,5 hPa 0,0 l/m 18,3 km/h (3 Bft) W 265 0 min 0 W/m 16,3 C 13,7 C 18,3 km/h (3 Bft)
06.08.2012 09:30 18,0 C 91 % 1005,5 hPa 0,0 l/m 22,1 km/h (4 Bft) W-SW 255 0 min 0 W/m 16,5 C 13,2 C 22,1 km/h (4 Bft)
06.08.2012 09:45 18,0 C 89 % 1005,5 hPa 0,0 l/m 22,1 km/h (4 Bft) W-SW 255 0 min 0 W/m 16,2 C 13,2 C 22,1 km/h (4 Bft)
06.08.2012 10:00 18,1 C 89 % 1005,5 hPa 0,0 l/m 27,3 km/h (5 Bft) W 265 0 min 0 W/m 16,3 C 12,4 C 27,3 km/h (5 Bft)
06.08.2012 10:15 18,3 C 87 % 1005,5 hPa 0,0 l/m 28,1 km/h (5 Bft) W 260 0 min 0 W/m 16,1 C 12,6 C 28,1 km/h (5 Bft)
06.08.2012 10:30 18,6 C 86 % 1005,5 hPa 0,0 l/m 24,7 km/h (4 Bft) W-SW 250 0 min 0 W/m 16,2 C 13,5 C 24,7 km/h (4 Bft)
06.08.2012 10:45 18,7 C 84 % 1005,5 hPa 0,0 l/m 32,8 km/h (5 Bft) W 260 0 min 0 W/m 15,9 C 12,5 C 32,8 km/h (5 Bft)
06.08.2012 11:00 19,2 C 84 % 1005,5 hPa 0,0 l/m 32,0 km/h (5 Bft) W 260 0 min 0 W/m 16,4 C 13,3 C 32,0 km/h (5 Bft)
06.08.2012 11:15 19,5 C 80 % 1005,5 hPa 0,0 l/m 30,6 km/h (5 Bft) W 260 0 min 0 W/m 16,0 C 13,9 C 30,6 km/h (5 Bft)
06.08.2012 11:30 18,9 C 81 % 1005,5 hPa 0,0 l/m 31,2 km/h (5 Bft) W 275 0 min 0 W/m 15,6 C 13,0 C 31,2 km/h (5 Bft)
06.08.2012 11:45 18,9 C 81 % 1006,5 hPa 0,0 l/m 33,6 km/h (5 Bft) W 265 0 min 0 W/m 15,6 C 12,7 C 33,6 km/h (5 Bft)
06.08.2012 12:00 19,2 C 80 % 1006,5 hPa 0,0 l/m 34,6 km/h (5 Bft) W 265 0 min 0 W/m 15,7 C 13,1 C 34,6 km/h (5 Bft)
06.08.2012 12:15 20,1 C 78 % 1006,5 hPa 0,0 l/m 38,6 km/h (6 Bft) W 270 0 min 0 W/m 16,1 C 14,0 C 38,6 km/h (6 Bft)
06.08.2012 12:30 19,9 C 78 % 1006,5 hPa 0,0 l/m 28,9 km/h (5 Bft) W 265 0 min 0 W/m 15,9 C 14,7 C 28,9 km/h (5 Bft)
06.08.2012 12:45 20,3 C 78 % 1006,5 hPa 0,0 l/m 30,2 km/h (5 Bft) W 270 0 min 0 W/m 16,3 C 15,1 C 30,2 km/h (5 Bft)
06.08.2012 13:00 20,2 C 74 % 1006,5 hPa 0,0 l/m 30,7 km/h (5 Bft) W 275 0 min 0 W/m 15,4 C 14,9 C 30,7 km/h (5 Bft)
06.08.2012 13:15 19,2 C 75 % 1006,5 hPa 0,0 l/m 28,1 km/h (5 Bft) NW 320 0 min 0 W/m 14,7 C 13,8 C 28,1 km/h (5 Bft)
06.08.2012 13:30 18,7 C 78 % 1006,5 hPa 0,0 l/m 29,5 km/h (5 Bft) NW 315 0 min 0 W/m 14,8 C 13,0 C 29,5 km/h (5 Bft)
06.08.2012 13:45 18,1 C 82 % 1006,5 hPa 0,6 l/m 18,9 km/h (3 Bft) W 270 0 min 0 W/m 15,0 C 14,0 C 18,9 km/h (3 Bft)
06.08.2012 14:00 17,7 C 85 % 1007,5 hPa 0,6 l/m 16,0 km/h (3 Bft) W 265 0 min 0 W/m 15,1 C 14,2 C 16,0 km/h (3 Bft)
06.08.2012 14:15 18,2 C 88 % 1007,5 hPa 0,0 l/m 17,1 km/h (3 Bft) W-SW 250 0 min 0 W/m 16,2 C 14,5 C 17,1 km/h (3 Bft)
06.08.2012 14:30 18,3 C 87 % 1007,5 hPa 0,0 l/m 18,5 km/h (3 Bft) W 260 0 min 0 W/m 16,1 C 14,3 C 18,5 km/h (3 Bft)
06.08.2012 14:45 19,4 C 86 % 1007,5 hPa 0,0 l/m 18,5 km/h (3 Bft) W-SW 255 0 min 0 W/m 17,0 C 15,7 C 18,5 km/h (3 Bft)
06.08.2012 15:00 20,3 C 80 % 1007,5 hPa 0,0 l/m 24,6 km/h (4 Bft) W 270 0 min 0 W/m 16,7 C 15,8 C 24,6 km/h (4 Bft)
06.08.2012 15:15 19,6 C 78 % 1007,5 hPa 0,0 l/m 19,8 km/h (3 Bft) W 275 0 min 0 W/m 15,7 C 15,7 C 19,8 km/h (3 Bft)
06.08.2012 15:30 19,1 C 80 % 1007,5 hPa 0,0 l/m 15,0 km/h (3 Bft) W-SW 255 0 min 0 W/m 15,6 C 16,2 C 15,0 km/h (3 Bft)
06.08.2012 15:45 19,4 C 80 % 1007,5 hPa 0,0 l/m 11,8 km/h (2 Bft) W-NW 295 0 min 0 W/m 15,9 C 17,4 C 11,8 km/h (2 Bft)
06.08.2012 16:00 20,5 C 76 % 1007,5 hPa 0,0 l/m 17,1 km/h (3 Bft) NW 315 0 min 0 W/m 16,1 C 17,4 C 17,1 km/h (3 Bft)
06.08.2012 16:15 21,0 C 73 % 1007,5 hPa 0,0 l/m 16,7 km/h (3 Bft) W-NW 290 0 min 0 W/m 16,0 C 18,1 C 16,7 km/h (3 Bft)
06.08.2012 16:30 21,2 C 72 % 1007,5 hPa 0,0 l/m 17,1 km/h (3 Bft) W 280 0 min 0 W/m 15,9 C 18,3 C 17,1 km/h (3 Bft)
06.08.2012 16:45 21,2 C 71 % 1007,5 hPa 0,0 l/m 16,7 km/h (3 Bft) W 260 0 min 0 W/m 15,7 C 18,4 C 16,7 km/h (3 Bft)
06.08.2012 17:00 20,8 C 72 % 1007,5 hPa 0,0 l/m 17,4 km/h (3 Bft) W-SW 255 0 min 0 W/m 15,6 C 17,7 C 17,4 km/h (3 Bft)
06.08.2012 17:15 20,4 C 74 % 1007,5 hPa 0,0 l/m 12,3 km/h (2 Bft) W 260 0 min 0 W/m 15,6 C 18,4 C 12,3 km/h (2 Bft)
06.08.2012 17:30 20,2 C 74 % 1007,5 hPa 0,0 l/m 13,1 km/h (3 Bft) W-SW 250 0 min 0 W/m 15,4 C 18,0 C 13,1 km/h (3 Bft)
06.08.2012 17:45 20,4 C 74 % 1007,5 hPa 0,0 l/m 15,0 km/h (3 Bft) W 275 0 min 0 W/m 15,6 C 17,7 C 15,0 km/h (3 Bft)
06.08.2012 18:00 20,0 C 73 % 1007,5 hPa 0,0 l/m 15,4 km/h (3 Bft) W 260 0 min 0 W/m 15,0 C 17,2 C 15,4 km/h (3 Bft)
06.08.2012 18:15 19,9 C 73 % 1007,5 hPa 0,0 l/m 20,0 km/h (4 Bft) W 265 0 min 0 W/m 14,9 C 16,1 C 20,0 km/h (4 Bft)
06.08.2012 18:30 20,0 C 74 % 1007,5 hPa 0,0 l/m 24,0 km/h (4 Bft) W 275 0 min 0 W/m 15,2 C 15,5 C 24,0 km/h (4 Bft)
06.08.2012 18:45 20,1 C 72 % 1007,5 hPa 0,0 l/m 27,0 km/h (5 Bft) W 270 0 min 0 W/m 14,9 C 15,2 C 27,0 km/h (5 Bft)
06.08.2012 19:00 19,9 C 74 % 1007,5 hPa 0,0 l/m 25,0 km/h (4 Bft) W 265 0 min 0 W/m 15,1 C 15,2 C 25,0 km/h (4 Bft)
06.08.2012 19:15 19,4 C 75 % 1007,5 hPa 0,0 l/m 22,3 km/h (4 Bft) W 260 0 min 0 W/m 14,8 C 15,0 C 22,3 km/h (4 Bft)
06.08.2012 19:30 19,1 C 75 % 1007,5 hPa 0,0 l/m 21,8 km/h (4 Bft) W 265 0 min 0 W/m 14,6 C 14,7 C 21,8 km/h (4 Bft)
06.08.2012 19:45 18,7 C 75 % 1007,5 hPa 0,0 l/m 17,5 km/h (3 Bft) W-SW 240 0 min 0 W/m 14,2 C 15,1 C 17,5 km/h (3 Bft)
06.08.2012 20:00 18,4 C 76 % 1007,5 hPa 0,0 l/m 26,3 km/h (4 Bft) W 260 0 min 0 W/m 14,1 C 13,0 C 26,3 km/h (4 Bft)
06.08.2012 20:15 18,4 C 77 % 1008,5 hPa 0,0 l/m 23,1 km/h (4 Bft) NW 305 0 min 0 W/m 14,3 C 13,5 C 23,1 km/h (4 Bft)
06.08.2012 20:30 17,9 C 80 % 1008,5 hPa 0,9 l/m 23,2 km/h (4 Bft) NW 315 0 min 0 W/m 14,4 C 12,9 C 23,2 km/h (4 Bft)
06.08.2012 20:45 17,4 C 82 % 1008,5 hPa 0,3 l/m 13,1 km/h (3 Bft) W 270 0 min 0 W/m 14,3 C 14,7 C 13,1 km/h (3 Bft)
06.08.2012 21:00 17,5 C 83 % 1008,5 hPa 0,0 l/m 13,1 km/h (3 Bft) W 270 0 min 0 W/m 14,6 C 14,8 C 13,1 km/h (3 Bft)
06.08.2012 21:15 17,5 C 86 % 1008,5 hPa 0,0 l/m 23,1 km/h (4 Bft) W-NW 295 0 min 0 W/m 15,1 C 12,3 C 23,1 km/h (4 Bft)
06.08.2012 21:30 17,1 C 86 % 1008,5 hPa 0,3 l/m 23,6 km/h (4 Bft) W 270 0 min 0 W/m 14,7 C 11,7 C 23,6 km/h (4 Bft)
06.08.2012 21:45 16,8 C 85 % 1008,5 hPa 0,0 l/m 17,8 km/h (3 Bft) W 260 0 min 0 W/m 14,3 C 12,6 C 17,8 km/h (3 Bft)
06.08.2012 21:59 16,8 C 86 % 1009,5 hPa 0,0 l/m 17,7 km/h (3 Bft) W 270 0 min 0 W/m 14,4 C 12,6 C 17,7 km/h (3 Bft)
06.08.2012 22:15 16,7 C 87 % 1009,5 hPa 0,3 l/m 19,5 km/h (3 Bft) W 270 0 min 0 W/m 14,5 C 12,1 C 19,5 km/h (3 Bft)
06.08.2012 22:30 16,5 C 88 % 1009,5 hPa 0,3 l/m 22,4 km/h (4 Bft) W 260 0 min 0 W/m 14,5 C 11,2 C 22,4 km/h (4 Bft)
06.08.2012 22:45 16,4 C 88 % 1009,5 hPa 0,0 l/m 18,8 km/h (3 Bft) W 260 0 min 0 W/m 14,4 C 11,8 C 18,8 km/h (3 Bft)
06.08.2012 23:00 16,2 C 87 % 1009,5 hPa 0,0 l/m 15,2 km/h (3 Bft) W-SW 255 0 min 0 W/m 14,0 C 12,6 C 15,2 km/h (3 Bft)
06.08.2012 23:15 16,2 C 88 % 1009,5 hPa 0,0 l/m 16,1 km/h (3 Bft) W-SW 255 0 min 0 W/m 14,2 C 12,3 C 16,1 km/h (3 Bft)
06.08.2012 23:30 16,1 C 87 % 1009,5 hPa 0,0 l/m 17,0 km/h (3 Bft) W-SW 255 0 min 0 W/m 13,9 C 11,9 C 17,0 km/h (3 Bft)
06.08.2012 23:45 16,0 C 88 % 1009,5 hPa 0,0 l/m 25,7 km/h (4 Bft) W 265 0 min 0 W/m 14,0 C 9,8 C 25,7 km/h (4 Bft)
_ Min-Zeit 23:45 16:45 05:00 - 07:30 - - - - 23:30 23:45 07:30
Minimum _ 16,0 C 71 % 1004,5 hPa - 0,0 km/h (0 Bft) - - - - 13,9 C 9,8 C 0,0 km/h (0 Bft)
_ Max-Zeit 16:30 07:00 21:59 06:00 12:15 - - 00:00 00:00 14:45 00:00 12:15
Maximum _ 21,2 C 91 % 1009,5 hPa 2,4 l/m 38,6 km/h
W (6 Bft)
- - 0 min 0 W/m 17,0 C 18,7 C 38,6 km/h
W (6 Bft)
Durchschnitt _ 18,4 C 84 % 1006,6 hPa #12,9 l/m 16,1 km/h (3 Bft) W - #0 min. 0 W/m 15,6 C 15,4 C 16,1 km/h (3 Bft)
copyright by Holger Just